Willow Grove, Texas
Current Conditions -  °F | °C
As of 1:15 PM on Saturday 20 Dec 2014 (Local Time) from KTPL Reporting Station
Overcast Overcast  
Wind Chill: 11°   Ceiling: 1500
Heat Index: 11°   Visibility: 10mi
Dew Point:   Wind: 8mph
Humidity: 67%   Direction: 340°NNW
Pressure: 30.2"   Gusts: NA
Location:  31.2688°N, 97.3985°W
Report Text: KTPL 201915Z AUTO 34007KT 10SM OVC015 11/05 A3020 RMK AO1
Loading
Personal Weather Stations






























Interactive Weather Map New forecast layout! Learn more

10-Day Weather Forecast

Advertisements
Track Severe Weather on mobile